Time;durP1;ratioP1;P1;durP2;ratioP2;P2;SDS_P1;SDS_P2;PMS_P1;PMS_P2;Temp;Humidity;BMP_temperature;BMP_pressure;BME280_temperature;BME280_humidity;BME280_pressure;Samples;Min_cycle;Max_cycle;Signal;HPM_P1;HPM_P2
2022/08/22 00:00:14;;;;;;;;;;;19.20;91.90;;;;;;5021389;28;19984;-53
2022/08/22 00:03:09;;;;;;;;;;;19.20;92.00;;;;;;5069618;28;19926;-52
2022/08/22 00:05:50;;;;;;;;;;;19.00;94.00;;;;;;5058388;28;19934;-55
2022/08/22 00:08:22;;;;;;;;;;;19.10;93.10;;;;;;5073067;28;19961;-56
2022/08/22 00:10:53;;;;;;;;;;;19.10;92.20;;;;;;5066657;28;19928;-54
2022/08/22 00:13:25;;;;;;;;;;;19.10;93.20;;;;;;5064705;28;19962;-53
2022/08/22 00:15:50;;;;;;;;;;;19.00;92.90;;;;;;5073151;28;19957;-54
2022/08/22 00:18:23;;;;;;;;;;;19.00;91.40;;;;;;5075231;28;20462;-52
2022/08/22 00:21:01;;;;;;;;;;;19.10;92.10;;;;;;5077005;28;19928;-51
2022/08/22 00:23:30;;;;;;;;;;;19.10;91.90;;;;;;5070331;28;19922;-53
2022/08/22 00:26:01;;;;;;;;;;;19.10;93.60;;;;;;5056247;28;20313;-48
2022/08/22 00:28:30;;;;;;;;;;;19.00;92.80;;;;;;5066984;28;20405;-55
2022/08/22 00:31:14;;;;;;;;;;;19.00;93.30;;;;;;5063354;28;20324;-55
2022/08/22 00:33:44;;;;;;;;;;;19.00;93.70;;;;;;5064716;28;20031;-47
2022/08/22 00:36:28;;;;;;;;;;;19.00;92.80;;;;;;5074367;28;20389;-48
2022/08/22 00:39:17;;;;;;;;;;;19.00;92.60;;;;;;5069752;28;19958;-55
2022/08/22 00:41:59;;;;;;;;;;;19.00;93.80;;;;;;5026018;28;19929;-47
2022/08/22 00:44:39;;;;;;;;;;;19.00;93.00;;;;;;5074949;28;19931;-48
2022/08/22 00:47:18;;;;;;;;;;;19.10;92.00;;;;;;5068225;28;19930;-50
2022/08/22 00:49:47;;;;;;;;;;;19.00;93.00;;;;;;5077775;28;19924;-49
2022/08/22 00:52:22;;;;;;;;;;;19.00;92.40;;;;;;5065417;28;19930;-47
2022/08/22 00:54:54;;;;;;;;;;;19.00;92.00;;;;;;5068833;28;19985;-49
2022/08/22 00:57:19;;;;;;;;;;;19.00;91.70;;;;;;5072236;28;19965;-48
2022/08/22 00:59:52;;;;;;;;;;;19.10;92.00;;;;;;5075276;28;19927;-48
2022/08/22 01:02:27;;;;;;;;;;;19.10;92.30;;;;;;5072406;28;19953;-48
2022/08/22 01:05:14;;;;;;;;;;;19.10;92.50;;;;;;5070686;28;19928;-49
2022/08/22 01:07:58;;;;;;;;;;;19.10;92.30;;;;;;5060626;28;19928;-48
2022/08/22 01:10:47;;;;;;;;;;;19.10;93.40;;;;;;5070508;28;20308;-47
2022/08/22 01:13:27;;;;;;;;;;;19.10;92.40;;;;;;5055633;28;19981;-48
2022/08/22 01:16:02;;;;;;;;;;;19.10;92.60;;;;;;5056433;28;19925;-48
2022/08/22 01:18:38;;;;;;;;;;;19.10;92.50;;;;;;5073887;28;19928;-48
2022/08/22 01:21:23;;;;;;;;;;;19.10;92.30;;;;;;5070108;28;19948;-55
2022/08/22 01:23:51;;;;;;;;;;;19.10;92.10;;;;;;5076188;28;19933;-48
2022/08/22 01:26:32;;;;;;;;;;;19.10;93.50;;;;;;5064393;28;19929;-52
2022/08/22 01:29:16;;;;;;;;;;;19.10;92.30;;;;;;5069810;28;19938;-50
2022/08/22 01:32:00;;;;;;;;;;;19.10;92.60;;;;;;5065848;28;20396;-48
2022/08/22 01:34:44;;;;;;;;;;;19.10;93.20;;;;;;5076420;28;20044;-49
2022/08/22 01:37:28;;;;;;;;;;;19.10;92.10;;;;;;5076725;28;19927;-48
2022/08/22 01:39:57;;;;;;;;;;;19.10;92.40;;;;;;5062700;28;20061;-48
2022/08/22 01:42:45;;;;;;;;;;;19.10;92.50;;;;;;5076883;28;20061;-47
2022/08/22 01:45:24;;;;;;;;;;;19.10;91.80;;;;;;5042771;28;19982;-49
2022/08/22 01:47:58;;;;;;;;;;;19.10;92.00;;;;;;5062484;28;19929;-49
2022/08/22 01:50:28;;;;;;;;;;;19.20;91.10;;;;;;5064884;28;19969;-48
2022/08/22 01:52:57;;;;;;;;;;;19.10;92.50;;;;;;5067415;28;19931;-48
2022/08/22 01:55:32;;;;;;;;;;;19.10;93.40;;;;;;5065546;28;19929;-50
2022/08/22 01:58:03;;;;;;;;;;;19.10;93.10;;;;;;5063772;28;20044;-50
2022/08/22 02:00:32;;;;;;;;;;;19.10;93.40;;;;;;5058350;28;19945;-51
2022/08/22 02:03:01;;;;;;;;;;;19.00;93.20;;;;;;5065753;28;19931;-49
2022/08/22 02:05:26;;;;;;;;;;;19.10;92.60;;;;;;5075210;28;19930;-49
2022/08/22 02:07:52;;;;;;;;;;;19.10;92.10;;;;;;5068777;28;19931;-49
2022/08/22 02:10:36;;;;;;;;;;;19.10;92.80;;;;;;5060996;28;19929;-51
2022/08/22 02:13:08;;;;;;;;;;;19.10;92.70;;;;;;5059282;28;19932;-49
2022/08/22 02:15:40;;;;;;;;;;;19.10;92.00;;;;;;5063278;28;19925;-48
2022/08/22 02:18:05;;;;;;;;;;;19.10;91.80;;;;;;5071497;28;19961;-53
2022/08/22 02:20:46;;;;;;;;;;;19.10;92.50;;;;;;5060207;28;20402;-48
2022/08/22 02:23:24;;;;;;;;;;;19.00;93.20;;;;;;5065720;28;19926;-47
2022/08/22 02:26:08;;;;;;;;;;;19.00;93.00;;;;;;5065108;28;20303;-48
2022/08/22 02:28:54;;;;;;;;;;;19.00;92.20;;;;;;5080092;28;20345;-49
2022/08/22 02:31:36;;;;;;;;;;;19.00;92.60;;;;;;5077330;28;19980;-49
2022/08/22 02:34:12;;;;;;;;;;;19.00;93.30;;;;;;5072026;28;20398;-50
2022/08/22 02:36:54;;;;;;;;;;;19.00;92.20;;;;;;5063585;28;21548;-49
2022/08/22 02:39:20;;;;;;;;;;;19.00;93.10;;;;;;5059426;28;19929;-49
2022/08/22 02:41:50;;;;;;;;;;;19.00;92.50;;;;;;5074687;28;19936;-49
2022/08/22 02:44:19;;;;;;;;;;;18.90;92.00;;;;;;5059699;28;20033;-49
2022/08/22 02:46:45;;;;;;;;;;;18.90;92.60;;;;;;5068388;28;19926;-48
2022/08/22 02:49:17;;;;;;;;;;;18.90;92.30;;;;;;5077850;28;19931;-50
2022/08/22 02:52:09;;;;;;;;;;;18.90;92.00;;;;;;5075163;28;19924;-49
2022/08/22 02:54:34;;;;;;;;;;;18.90;92.10;;;;;;5057299;28;19943;-47
2022/08/22 02:57:39;;;;;;;;;;;18.90;93.10;;;;;;5075158;28;20042;-47
2022/08/22 03:00:16;;;;;;;;;;;18.90;92.60;;;;;;5014738;28;19987;-48
2022/08/22 03:02:43;;;;;;;;;;;18.90;92.60;;;;;;5017411;28;19933;-51
2022/08/22 03:05:17;;;;;;;;;;;18.90;92.20;;;;;;5040083;28;19963;-48
2022/08/22 03:07:48;;;;;;;;;;;19.00;91.80;;;;;;5078310;28;19924;-48
2022/08/22 03:10:28;;;;;;;;;;;18.90;92.50;;;;;;5075562;28;20263;-49
2022/08/22 03:13:14;;;;;;;;;;;18.90;92.20;;;;;;5077851;28;19929;-48
2022/08/22 03:15:44;;;;;;;;;;;18.90;93.20;;;;;;5075179;28;19976;-52
2022/08/22 03:18:13;;;;;;;;;;;19.00;92.90;;;;;;5064759;28;19939;-49
2022/08/22 03:20:51;;;;;;;;;;;18.90;92.60;;;;;;5058256;28;19948;-48
2022/08/22 03:23:22;;;;;;;;;;;18.90;91.80;;;;;;5068524;28;19942;-49
2022/08/22 03:26:00;;;;;;;;;;;18.90;92.50;;;;;;5066580;28;19927;-47
2022/08/22 03:28:30;;;;;;;;;;;18.90;92.40;;;;;;5070490;28;20020;-54
2022/08/22 03:30:57;;;;;;;;;;;18.90;93.40;;;;;;5058039;28;20452;-54
2022/08/22 03:33:30;;;;;;;;;;;18.90;93.60;;;;;;5058193;28;20040;-48
2022/08/22 03:35:58;;;;;;;;;;;18.90;93.90;;;;;;5063466;28;20418;-50
2022/08/22 03:38:30;;;;;;;;;;;18.80;94.30;;;;;;5076335;28;19920;-50
2022/08/22 03:41:11;;;;;;;;;;;18.80;94.10;;;;;;5069420;28;19940;-48
2022/08/22 03:43:55;;;;;;;;;;;18.80;92.80;;;;;;5058197;28;19919;-49
2022/08/22 03:46:24;;;;;;;;;;;18.80;92.50;;;;;;5067302;28;19953;-48
2022/08/22 03:48:56;;;;;;;;;;;18.80;93.60;;;;;;5076333;28;20036;-50
2022/08/22 03:51:37;;;;;;;;;;;18.80;93.60;;;;;;5070078;28;19928;-51
2022/08/22 03:54:14;;;;;;;;;;;18.80;93.30;;;;;;5074276;28;19988;-48
2022/08/22 03:56:46;;;;;;;;;;;18.80;93.40;;;;;;5063989;28;19963;-49
2022/08/22 03:59:14;;;;;;;;;;;18.70;92.60;;;;;;5069190;28;19924;-51
2022/08/22 04:01:46;;;;;;;;;;;18.80;93.00;;;;;;5064134;28;19932;-47
2022/08/22 04:04:11;;;;;;;;;;;18.70;93.20;;;;;;5069819;28;19926;-48
2022/08/22 04:06:48;;;;;;;;;;;18.80;92.80;;;;;;5077245;28;19932;-50
2022/08/22 04:09:26;;;;;;;;;;;18.80;92.30;;;;;;5075470;28;19930;-49
2022/08/22 04:11:54;;;;;;;;;;;18.80;93.20;;;;;;5068434;28;20338;-51
2022/08/22 04:14:38;;;;;;;;;;;18.70;92.70;;;;;;5065239;28;19938;-49
2022/08/22 04:17:27;;;;;;;;;;;18.70;93.20;;;;;;5059500;28;19987;-48
2022/08/22 04:19:53;;;;;;;;;;;18.70;92.40;;;;;;5076845;28;19931;-48
2022/08/22 04:22:37;;;;;;;;;;;18.70;92.90;;;;;;5067893;28;19959;-47
2022/08/22 04:25:14;;;;;;;;;;;18.70;92.60;;;;;;5074323;28;19969;-47
2022/08/22 04:27:48;;;;;;;;;;;18.70;93.40;;;;;;5064741;28;20294;-49
2022/08/22 04:30:24;;;;;;;;;;;18.60;93.30;;;;;;5074918;28;19923;-48
2022/08/22 04:33:13;;;;;;;;;;;18.60;93.10;;;;;;5057642;28;20425;-48
2022/08/22 04:36:15;;;;;;;;;;;18.60;92.80;;;;;;5052624;28;19944;-47
2022/08/22 04:38:46;;;;;;;;;;;18.60;93.10;;;;;;5017985;28;20505;-48
2022/08/22 04:41:34;;;;;;;;;;;18.60;93.00;;;;;;5056648;28;19924;-48
2022/08/22 04:44:10;;;;;;;;;;;18.60;92.70;;;;;;5077772;28;19925;-50
2022/08/22 04:46:44;;;;;;;;;;;18.60;92.40;;;;;;5076915;28;19931;-48
2022/08/22 04:49:33;;;;;;;;;;;18.60;93.10;;;;;;5072621;28;19950;-47
2022/08/22 04:52:05;;;;;;;;;;;18.60;93.20;;;;;;5060447;28;19928;-47
2022/08/22 04:54:37;;;;;;;;;;;18.60;92.50;;;;;;5059071;28;19948;-47
2022/08/22 04:57:03;;;;;;;;;;;18.60;92.70;;;;;;5060723;28;19998;-47
2022/08/22 04:59:29;;;;;;;;;;;18.60;93.00;;;;;;5057546;28;19965;-55
2022/08/22 05:01:57;;;;;;;;;;;18.60;92.40;;;;;;5055306;28;19934;-49
2022/08/22 05:04:28;;;;;;;;;;;18.60;93.10;;;;;;5057727;28;19970;-49
2022/08/22 05:07:16;;;;;;;;;;;18.60;93.30;;;;;;5072344;28;20030;-54
2022/08/22 05:09:48;;;;;;;;;;;18.60;92.80;;;;;;5056479;28;19942;-48
2022/08/22 05:12:17;;;;;;;;;;;18.60;92.40;;;;;;5079556;28;19928;-51
2022/08/22 05:14:42;;;;;;;;;;;18.60;92.90;;;;;;5081542;28;20007;-48
2022/08/22 05:17:11;;;;;;;;;;;18.60;93.40;;;;;;5063391;28;20527;-50
2022/08/22 05:19:39;;;;;;;;;;;18.60;93.20;;;;;;5061381;28;19974;-47
2022/08/22 05:22:06;;;;;;;;;;;18.60;92.90;;;;;;5060503;28;19938;-48
2022/08/22 05:24:36;;;;;;;;;;;18.60;93.00;;;;;;5059662;28;20355;-52
2022/08/22 05:27:08;;;;;;;;;;;18.60;93.20;;;;;;5075609;28;19935;-50
2022/08/22 05:29:37;;;;;;;;;;;18.60;93.30;;;;;;5071294;28;19925;-55
2022/08/22 05:32:05;;;;;;;;;;;18.60;93.50;;;;;;5071985;28;19933;-55
2022/08/22 05:34:36;;;;;;;;;;;18.50;93.50;;;;;;5068387;28;20396;-50
2022/08/22 05:37:09;;;;;;;;;;;18.50;93.10;;;;;;5064206;28;19955;-50
2022/08/22 05:39:37;;;;;;;;;;;18.50;93.10;;;;;;5079220;28;19935;-54
2022/08/22 05:42:03;;;;;;;;;;;18.60;92.50;;;;;;5080626;28;20291;-51
2022/08/22 05:44:34;;;;;;;;;;;18.60;92.40;;;;;;5075968;28;19932;-50
2022/08/22 05:47:02;;;;;;;;;;;18.60;92.30;;;;;;5066055;28;19936;-56
2022/08/22 05:49:33;;;;;;;;;;;18.60;92.80;;;;;;5071500;28;19936;-53
2022/08/22 05:52:06;;;;;;;;;;;18.50;93.20;;;;;;5080124;28;20341;-55
2022/08/22 05:54:34;;;;;;;;;;;18.50;93.20;;;;;;5066660;28;19947;-54
2022/08/22 05:57:15;;;;;;;;;;;18.50;93.30;;;;;;5060345;28;19965;-55
2022/08/22 05:59:42;;;;;;;;;;;18.60;93.20;;;;;;5079536;28;19962;-52
2022/08/22 06:02:12;;;;;;;;;;;18.60;92.70;;;;;;5092821;28;19926;-55
2022/08/22 06:04:46;;;;;;;;;;;18.60;93.10;;;;;;5072805;28;19923;-52
2022/08/22 06:07:21;;;;;;;;;;;18.60;93.00;;;;;;5068855;28;19928;-55
2022/08/22 06:09:46;;;;;;;;;;;18.70;93.00;;;;;;5068858;28;19959;-55
2022/08/22 06:12:12;;;;;;;;;;;18.70;92.80;;;;;;5072952;28;19926;-54
2022/08/22 06:14:44;;;;;;;;;;;18.70;92.90;;;;;;5068570;28;19944;-51
2022/08/22 06:17:16;;;;;;;;;;;18.70;93.00;;;;;;5070088;28;19940;-55
2022/08/22 06:19:45;;;;;;;;;;;18.70;93.10;;;;;;5078734;28;19943;-52
2022/08/22 06:22:13;;;;;;;;;;;18.70;92.60;;;;;;5076560;28;19927;-53
2022/08/22 06:24:39;;;;;;;;;;;18.70;92.80;;;;;;5077995;28;20018;-50
2022/08/22 06:27:11;;;;;;;;;;;18.70;92.70;;;;;;5072159;28;19927;-53
2022/08/22 06:29:39;;;;;;;;;;;18.60;92.60;;;;;;5072594;28;19931;-50
2022/08/22 06:32:13;;;;;;;;;;;18.60;92.90;;;;;;5060056;28;19928;-48
2022/08/22 06:34:41;;;;;;;;;;;18.60;92.50;;;;;;5070169;28;20441;-54
2022/08/22 06:37:10;;;;;;;;;;;18.60;92.70;;;;;;5076718;28;20434;-52
2022/08/22 06:39:37;;;;;;;;;;;18.70;92.60;;;;;;5060535;28;20043;-50
2022/08/22 06:42:09;;;;;;;;;;;18.70;92.50;;;;;;5057637;28;20510;-55
2022/08/22 06:44:37;;;;;;;;;;;18.80;92.40;;;;;;5059629;28;19936;-52
2022/08/22 06:47:04;;;;;;;;;;;18.80;92.20;;;;;;5059585;28;19927;-50
2022/08/22 06:49:31;;;;;;;;;;;18.70;92.40;;;;;;5059542;28;19930;-52
2022/08/22 06:52:00;;;;;;;;;;;18.70;92.20;;;;;;5068029;28;20389;-50
2022/08/22 06:54:28;;;;;;;;;;;18.80;91.80;;;;;;5079189;28;19944;-52
2022/08/22 06:56:54;;;;;;;;;;;18.80;91.90;;;;;;5079178;28;20053;-50
2022/08/22 06:59:26;;;;;;;;;;;18.80;91.70;;;;;;5079054;28;19924;-55
2022/08/22 07:02:07;;;;;;;;;;;18.80;92.00;;;;;;5077429;28;19947;-52
2022/08/22 07:04:32;;;;;;;;;;;18.90;91.80;;;;;;5075442;28;19927;-53
2022/08/22 07:06:59;;;;;;;;;;;18.90;91.70;;;;;;5068198;28;19935;-52
2022/08/22 07:09:30;;;;;;;;;;;18.90;92.10;;;;;;5059214;28;19925;-55
2022/08/22 07:11:56;;;;;;;;;;;19.00;92.10;;;;;;5059158;28;19928;-52
2022/08/22 07:14:31;;;;;;;;;;;19.00;92.20;;;;;;5066744;28;19970;-53
2022/08/22 07:16:58;;;;;;;;;;;19.10;92.10;;;;;;5067649;28;19937;-51
2022/08/22 07:19:35;;;;;;;;;;;19.20;92.10;;;;;;5059293;28;20383;-48
2022/08/22 07:22:24;;;;;;;;;;;19.20;92.10;;;;;;5057727;28;19933;-54
2022/08/22 07:24:52;;;;;;;;;;;19.30;92.20;;;;;;5058303;28;19931;-56
2022/08/22 07:27:36;;;;;;;;;;;19.40;92.10;;;;;;5078819;28;20379;-50
2022/08/22 07:30:09;;;;;;;;;;;19.40;91.60;;;;;;5078478;28;19928;-51
2022/08/22 07:32:40;;;;;;;;;;;19.50;91.80;;;;;;5078402;28;19920;-52
2022/08/22 07:35:12;;;;;;;;;;;19.60;91.80;;;;;;5060412;28;20443;-51
2022/08/22 07:37:53;;;;;;;;;;;19.60;91.40;;;;;;5058846;28;19964;-49
2022/08/22 07:40:25;;;;;;;;;;;19.60;90.70;;;;;;5058277;28;19996;-50
2022/08/22 07:42:51;;;;;;;;;;;19.60;91.10;;;;;;5058615;28;20395;-53
2022/08/22 07:45:23;;;;;;;;;;;19.70;91.30;;;;;;5058414;28;19991;-51
2022/08/22 07:47:55;;;;;;;;;;;19.70;91.00;;;;;;5058427;28;19997;-51
2022/08/22 07:50:27;;;;;;;;;;;19.80;91.50;;;;;;5066659;28;19924;-51
2022/08/22 07:52:56;;;;;;;;;;;19.90;92.00;;;;;;5063311;28;20344;-48
2022/08/22 07:55:22;;;;;;;;;;;20.00;91.20;;;;;;5058203;28;19943;-52
2022/08/22 07:57:57;;;;;;;;;;;20.10;91.20;;;;;;5057742;28;19959;-52
2022/08/22 08:00:24;;;;;;;;;;;20.10;91.00;;;;;;5058178;28;19927;-51
2022/08/22 08:02:52;;;;;;;;;;;20.00;90.60;;;;;;5057981;28;19940;-53
2022/08/22 08:05:19;;;;;;;;;;;20.00;90.90;;;;;;5058177;28;20274;-50
2022/08/22 08:07:45;;;;;;;;;;;19.90;90.40;;;;;;5057797;28;20131;-50
2022/08/22 08:10:31;;;;;;;;;;;19.80;90.30;;;;;;5058134;28;19928;-50
2022/08/22 08:13:09;;;;;;;;;;;19.90;90.40;;;;;;5057768;28;20286;-52
2022/08/22 08:15:36;;;;;;;;;;;19.90;90.80;;;;;;5058165;28;19928;-49
2022/08/22 08:18:04;;;;;;;;;;;19.90;90.60;;;;;;5060412;28;19974;-52
2022/08/22 08:20:30;;;;;;;;;;;20.00;90.60;;;;;;5058033;28;19953;-53
2022/08/22 08:22:57;;;;;;;;;;;19.80;90.40;;;;;;5057044;28;19924;-52
2022/08/22 08:25:25;;;;;;;;;;;19.90;90.30;;;;;;5055213;28;19928;-50
2022/08/22 08:31:02;;;;;;;;;;;19.80;90.90;;;;;;5056447;28;19943;-51
2022/08/22 08:33:30;;;;;;;;;;;19.80;90.80;;;;;;5052867;28;19959;-55
2022/08/22 08:36:00;;;;;;;;;;;19.90;90.50;;;;;;5055961;28;19924;-55
2022/08/22 08:38:29;;;;;;;;;;;20.00;90.30;;;;;;5057432;28;19927;-55
2022/08/22 08:40:54;;;;;;;;;;;20.00;90.70;;;;;;5057259;28;19932;-56
2022/08/22 08:43:30;;;;;;;;;;;20.00;90.40;;;;;;5057392;28;20371;-52
2022/08/22 08:46:05;;;;;;;;;;;20.10;91.00;;;;;;5057001;28;19953;-53
2022/08/22 08:48:50;;;;;;;;;;;20.20;90.40;;;;;;5061640;28;19930;-54
2022/08/22 08:51:34;;;;;;;;;;;20.40;90.30;;;;;;5061421;28;19936;-56
2022/08/22 08:54:03;;;;;;;;;;;20.50;90.70;;;;;;5061457;28;19947;-53
2022/08/22 08:56:55;;;;;;;;;;;20.10;89.50;;;;;;5061122;28;20422;-54
2022/08/22 08:59:24;;;;;;;;;;;19.80;90.40;;;;;;5037877;28;20000;-53
2022/08/22 09:02:02;;;;;;;;;;;19.70;91.00;;;;;;5061736;28;19965;-56
2022/08/22 09:04:36;;;;;;;;;;;19.80;91.10;;;;;;5061406;28;19930;-53
2022/08/22 09:07:32;;;;;;;;;;;19.70;91.00;;;;;;5061533;28;20267;-54
2022/08/22 09:10:06;;;;;;;;;;;19.60;91.70;;;;;;5061476;28;19926;-51
2022/08/22 09:12:32;;;;;;;;;;;19.60;91.70;;;;;;5061172;28;19919;-54
2022/08/22 09:15:24;;;;;;;;;;;19.60;91.90;;;;;;5060877;28;20474;-51
2022/08/22 09:18:04;;;;;;;;;;;19.70;91.90;;;;;;5057898;28;19960;-51
2022/08/22 09:20:29;;;;;;;;;;;19.70;92.10;;;;;;5061048;28;19933;-50
2022/08/22 09:22:58;;;;;;;;;;;19.70;91.60;;;;;;5060982;28;19925;-51
2022/08/22 09:25:34;;;;;;;;;;;19.70;92.20;;;;;;5061186;28;19933;-52
2022/08/22 09:28:12;;;;;;;;;;;19.80;92.00;;;;;;5061042;28;19917;-53
2022/08/22 09:30:44;;;;;;;;;;;19.90;91.90;;;;;;5060787;28;20325;-54
2022/08/22 09:33:16;;;;;;;;;;;20.10;91.60;;;;;;5060762;28;20001;-55
2022/08/22 09:36:01;;;;;;;;;;;20.00;91.40;;;;;;5060739;28;19926;-52
2022/08/22 09:38:30;;;;;;;;;;;20.00;91.20;;;;;;5061204;28;19923;-52
2022/08/22 09:41:18;;;;;;;;;;;20.10;90.70;;;;;;5060854;28;19917;-53
2022/08/22 09:43:49;;;;;;;;;;;20.20;90.60;;;;;;5060541;28;19925;-54
2022/08/22 09:46:22;;;;;;;;;;;20.40;91.50;;;;;;5060659;28;20015;-52
2022/08/22 09:49:02;;;;;;;;;;;20.30;91.00;;;;;;5060774;28;19920;-53
2022/08/22 09:51:40;;;;;;;;;;;20.40;90.90;;;;;;5058981;28;20435;-50
2022/08/22 09:54:24;;;;;;;;;;;20.40;91.30;;;;;;5060348;28;19944;-48
2022/08/22 09:56:52;;;;;;;;;;;20.60;91.00;;;;;;5059880;28;19967;-51
2022/08/22 09:59:23;;;;;;;;;;;20.50;90.80;;;;;;5060493;28;19964;-51
2022/08/22 10:01:57;;;;;;;;;;;20.40;90.30;;;;;;5060265;28;20268;-50
2022/08/22 10:04:25;;;;;;;;;;;20.40;90.80;;;;;;5060302;28;20016;-54
2022/08/22 10:07:00;;;;;;;;;;;20.50;90.90;;;;;;5060212;28;19972;-50
2022/08/22 10:09:32;;;;;;;;;;;20.40;91.50;;;;;;5060320;28;19924;-53
2022/08/22 10:12:07;;;;;;;;;;;20.60;91.40;;;;;;5059859;28;19991;-51
2022/08/22 10:14:39;;;;;;;;;;;20.70;91.20;;;;;;5059863;28;19955;-51
2022/08/22 10:17:31;;;;;;;;;;;20.50;91.20;;;;;;5060461;28;20332;-51
2022/08/22 10:20:26;;;;;;;;;;;20.30;91.30;;;;;;5056898;28;19936;-54
2022/08/22 10:23:15;;;;;;;;;;;20.30;91.70;;;;;;5046993;28;19961;-57
2022/08/22 10:25:47;;;;;;;;;;;20.50;91.40;;;;;;5051903;28;19922;-57
2022/08/22 10:28:20;;;;;;;;;;;20.50;91.20;;;;;;5066465;28;19922;-57
2022/08/22 10:30:49;;;;;;;;;;;20.50;90.90;;;;;;5080037;28;20281;-58
2022/08/22 10:33:22;;;;;;;;;;;20.50;91.10;;;;;;5073426;28;19928;-58
2022/08/22 10:35:59;;;;;;;;;;;20.40;91.60;;;;;;5079873;28;19946;-58
2022/08/22 10:38:51;;;;;;;;;;;20.50;91.40;;;;;;5080030;28;19944;-57
2022/08/22 10:41:19;;;;;;;;;;;20.40;91.40;;;;;;5075608;28;19934;-58
2022/08/22 10:43:51;;;;;;;3.72;1.75;;;20.40;91.50;;;;;;5078786;28;20391;-50
2022/08/22 10:46:27;;;;;;;3.15;1.65;;;20.20;91.60;;;;;;5079109;28;20032;-50
2022/08/22 10:48:58;;;;;;;3.38;1.83;;;20.20;91.70;;;;;;5079044;28;20024;-54
2022/08/22 10:51:43;;;;;;;7.57;4.03;;;20.20;91.80;;;;;;5073894;28;20017;-51
2022/08/22 10:54:42;;;;;;;4.20;2.90;;;20.40;91.90;;;;;;5072851;28;20450;-50
2022/08/22 10:57:31;;;;;;;1.75;1.52;;;20.50;91.30;;;;;;5078542;28;20045;-51
2022/08/22 11:00:35;;;;;;;3.83;1.70;;;20.30;92.10;;;;;;5079000;28;20387;-53
2022/08/22 11:03:38;;;;;;;2.45;1.80;;;20.60;91.70;;;;;;5077287;28;20457;-54
2022/08/22 11:06:12;;;;;;;4.57;2.35;;;20.50;91.70;;;;;;5078846;28;20017;-47
2022/08/22 11:08:59;;;;;;;2.28;1.70;;;20.50;91.80;;;;;;5077894;28;20056;-54
2022/08/22 11:11:52;;;;;;;2.60;1.60;;;20.60;91.40;;;;;;5078371;28;20029;-52
2022/08/22 11:14:31;;;;;;;3.60;1.80;;;20.60;91.50;;;;;;5078405;28;20074;-53
2022/08/22 11:17:05;;;;;;;3.95;2.40;;;20.70;91.90;;;;;;5078166;28;20047;-50
2022/08/22 11:19:42;;;;;;;6.03;1.92;;;20.60;92.00;;;;;;5078552;28;20537;-53
2022/08/22 11:22:14;;;;;;;3.20;1.90;;;20.60;91.70;;;;;;5078432;28;20028;-54
2022/08/22 11:25:01;;;;;;;3.55;1.98;;;20.50;92.00;;;;;;5078432;28;20133;-53
2022/08/22 11:27:48;;;;;;;4.60;1.90;;;20.80;91.90;;;;;;5078168;28;20028;-48
2022/08/22 11:30:27;;;;;;;5.47;2.42;;;20.80;91.30;;;;;;5078091;28;20078;-50
2022/08/22 11:33:22;;;;;;;6.35;2.60;;;20.90;91.80;;;;;;5078343;28;20484;-53
2022/08/22 11:36:25;;;;;;;5.47;2.63;;;20.70;91.40;;;;;;5078088;28;20031;-53
2022/08/22 11:39:22;;;;;;;4.68;2.28;;;20.40;91.80;;;;;;5078801;28;20029;-52
2022/08/22 11:41:56;;;;;;;6.13;2.70;;;20.20;92.30;;;;;;5078111;28;20021;-54
2022/08/22 11:44:45;;;;;;;5.50;2.28;;;20.10;92.90;;;;;;5077886;28;20028;-55
2022/08/22 11:47:15;;;;;;;5.93;2.90;;;20.10;92.60;;;;;;5078009;28;20032;-55
2022/08/22 11:50:03;;;;;;;5.78;3.10;;;20.20;93.00;;;;;;5077989;28;20078;-49
2022/08/22 11:52:52;;;;;;;7.00;3.30;;;20.00;93.00;;;;;;5077976;28;20025;-51
2022/08/22 11:55:59;;;;;;;6.55;2.97;;;20.10;93.00;;;;;;5077476;28;20033;-53
2022/08/22 11:58:44;;;;;;;6.78;3.53;;;20.10;93.00;;;;;;5077263;28;20194;-50
2022/08/22 12:01:38;;;;;;;7.78;3.47;;;20.00;92.90;;;;;;5077932;28;20024;-53
2022/08/22 12:04:40;;;;;;;5.93;3.17;;;20.00;92.80;;;;;;5070129;28;20067;-50
2022/08/22 12:07:11;;;;;;;6.70;2.92;;;19.80;93.50;;;;;;5077495;28;20096;-53
2022/08/22 12:09:46;;;;;;;6.70;2.95;;;19.90;93.80;;;;;;5077368;28;20075;-53
2022/08/22 12:12:27;;;;;;;8.18;3.03;;;19.80;93.90;;;;;;5077377;28;20047;-50
2022/08/22 12:15:19;;;;;;;7.15;3.58;;;19.80;94.10;;;;;;5077733;28;20024;-53
2022/08/22 12:18:23;;;;;;;7.72;3.53;;;19.90;94.00;;;;;;5077127;28;20033;-55
2022/08/22 12:20:52;;;;;;;6.40;3.47;;;20.00;94.20;;;;;;5077678;28;20021;-50
2022/08/22 12:23:38;;;;;;;8.50;3.13;;;20.10;94.40;;;;;;5077370;28;20056;-51
2022/08/22 12:26:19;;;;;;;6.28;3.30;;;20.20;94.00;;;;;;5077141;28;20047;-51
2022/08/22 12:29:17;;;;;;;7.72;3.80;;;20.30;94.20;;;;;;5077514;28;20056;-50
2022/08/22 12:32:17;;;;;;;5.75;3.38;;;20.40;93.60;;;;;;5077525;28;20093;-52
2022/08/22 12:34:53;;;;;;;7.25;3.67;;;20.30;93.70;;;;;;5077144;28;20032;-50
2022/08/22 12:37:35;;;;;;;8.82;4.43;;;20.40;94.00;;;;;;5077550;28;20028;-49
2022/08/22 12:40:13;;;;;;;7.03;4.10;;;20.50;93.80;;;;;;5077612;28;20012;-51
2022/08/22 12:43:06;;;;;;;8.05;4.13;;;20.70;93.60;;;;;;5076960;28;20031;-51
2022/08/22 12:46:10;;;;;;;8.38;4.57;;;20.90;93.60;;;;;;5077418;28;20028;-52
2022/08/22 12:49:00;;;;;;;11.15;4.47;;;20.90;93.90;;;;;;5077082;28;20078;-52
2022/08/22 12:51:35;;;;;;;9.18;4.40;;;20.90;93.70;;;;;;5077199;28;20090;-53
2022/08/22 12:54:26;;;;;;;11.98;4.15;;;21.10;93.80;;;;;;5077155;28;20029;-53
2022/08/22 12:57:02;;;;;;;7.88;3.60;;;20.90;93.90;;;;;;5076936;28;20090;-49
2022/08/22 12:59:36;;;;;;;9.07;3.90;;;20.90;93.80;;;;;;5077098;28;20028;-49
2022/08/22 13:02:11;;;;;;;;;;;20.80;93.70;;;;;;5077314;28;20365;-55
2022/08/22 13:04:53;;;;;;;13.20;4.22;;;20.80;93.90;;;;;;5077287;28;19908;-49
2022/08/22 13:07:29;;;;;;;16.05;5.00;;;20.80;93.80;;;;;;5077005;28;20077;-50
2022/08/22 13:10:15;;;;;;;13.30;4.50;;;20.60;94.10;;;;;;5076982;28;20028;-53
2022/08/22 13:12:46;;;;;;;17.55;4.88;;;20.50;94.60;;;;;;5069443;28;20036;-51
2022/08/22 13:15:30;;;;;;;11.32;4.90;;;20.50;94.30;;;;;;5077087;28;20044;-48
2022/08/22 13:17:58;;;;;;;9.52;5.03;;;20.60;94.30;;;;;;5076619;28;20027;-52
2022/08/22 13:20:29;;;;;;;14.65;6.13;;;20.70;94.40;;;;;;5076684;28;20076;-51
2022/08/22 13:22:59;;;;;;;11.95;5.78;;;20.70;94.10;;;;;;5076756;28;20021;-52
2022/08/22 13:25:28;;;;;;;15.10;5.05;;;20.50;94.30;;;;;;5076958;28;20081;-51
2022/08/22 13:28:01;;;;;;;17.90;5.25;;;20.50;94.20;;;;;;5076864;28;20021;-55
2022/08/22 13:30:39;;;;;;;10.55;5.05;;;20.40;94.60;;;;;;5076705;28;20029;-50
2022/08/22 13:33:08;;;;;;;12.60;4.53;;;20.50;94.60;;;;;;5079346;28;20056;-53
2022/08/22 13:35:54;;;;;;;10.30;4.60;;;20.40;94.60;;;;;;5080459;28;20020;-52
2022/08/22 13:38:43;;;;;;;8.95;4.63;;;20.40;94.90;;;;;;5080562;28;20024;-50
2022/08/22 13:41:10;;;;;;;12.75;4.60;;;20.40;94.70;;;;;;5080500;28;20037;-52
2022/08/22 13:43:58;;;;;;;9.95;4.97;;;20.40;94.70;;;;;;5080230;28;20027;-50
2022/08/22 13:46:29;;;;;;;10.68;4.60;;;20.50;94.70;;;;;;5079971;28;20467;-50
2022/08/22 13:48:58;;;;;;;11.60;4.72;;;20.70;94.70;;;;;;5080487;28;20021;-50
2022/08/22 13:51:23;;;;;;;12.10;4.68;;;20.90;94.20;;;;;;5080113;28;20028;-54
2022/08/22 13:53:57;;;;;;;15.18;5.18;;;20.90;93.60;;;;;;5079983;28;20033;-50
2022/08/22 13:56:29;;;;;;;15.23;4.77;;;21.00;93.30;;;;;;5080229;28;20039;-49
2022/08/22 13:59:02;;;;;;;11.75;5.75;;;21.00;93.30;;;;;;5080175;28;20259;-50
2022/08/22 14:01:47;;;;;;;13.93;4.88;;;21.10;93.50;;;;;;5079777;28;20032;-53
2022/08/22 14:04:24;;;;;;;;;;;20.90;93.70;;;;;;5080244;28;20093;-51
2022/08/22 14:07:05;;;;;;;10.32;4.80;;;20.90;94.10;;;;;;5079942;28;20450;-50
2022/08/22 14:10:01;;;;;;;10.13;4.85;;;21.00;93.60;;;;;;5080181;28;20063;-50
2022/08/22 14:12:35;;;;;;;9.38;4.38;;;21.00;93.60;;;;;;5079659;28;20104;-52
2022/08/22 14:15:06;;;;;;;8.25;4.65;;;21.00;93.60;;;;;;5079565;28;20028;-48
2022/08/22 14:17:43;;;;;;;8.90;4.95;;;21.10;93.60;;;;;;5079532;28;20028;-51
2022/08/22 14:20:29;;;;;;;12.23;5.38;;;21.20;93.50;;;;;;5079712;28;20021;-50
2022/08/22 14:23:11;;;;;;;12.60;5.90;;;21.30;93.00;;;;;;5079203;28;20052;-51
2022/08/22 14:25:40;;;;;;;15.13;6.43;;;21.20;93.30;;;;;;5079622;28;20060;-50
2022/08/22 14:28:19;;;;;;;15.23;5.85;;;21.10;93.60;;;;;;5079549;28;20493;-52
2022/08/22 14:31:10;;;;;;;11.07;6.20;;;21.20;93.20;;;;;;5079422;28;20052;-52
2022/08/22 14:33:56;;;;;;;12.35;6.53;;;21.30;93.20;;;;;;5079536;28;20020;-54
2022/08/22 14:36:46;;;;;;;10.27;6.32;;;21.20;93.40;;;;;;5079835;28;20027;-50
2022/08/22 14:39:25;;;;;;;13.25;6.90;;;21.20;93.40;;;;;;5079573;28;20044;-51
2022/08/22 14:42:26;;;;;;;9.48;5.70;;;21.30;93.20;;;;;;5079110;28;20024;-53
2022/08/22 14:45:12;;;;;;;10.82;5.57;;;21.30;93.30;;;;;;5068766;28;20081;-53